Time;durP1;ratioP1;P1;durP2;ratioP2;P2;SDS_P1;SDS_P2;PMS_P1;PMS_P2;Temp;Humidity;BMP_temperature;BMP_pressure;BME280_temperature;BME280_humidity;BME280_pressure;Samples;Min_cycle;Max_cycle;Signal;HPM_P1;HPM_P2
2021/12/19 00:00:27;;;;;;;;;;;2.20;99.90;;;;;;5034057;28;19905;-62
2021/12/19 00:08:32;;;;;;;;;;;2.20;99.90;;;;;;5034899;28;20381;-64
2021/12/19 00:10:58;;;;;;;;;;;3.60;99.90;;;;;;5034605;28;19999;-65
2021/12/19 00:13:25;;;;;;;;;;;2.50;99.90;;;;;;5034375;28;19909;-64
2021/12/19 00:15:51;;;;;;;;;;;1.80;99.90;;;;;;5034277;28;19913;-65
2021/12/19 00:18:16;;;;;;;;;;;2.00;99.90;;;;;;5033732;28;19912;-64
2021/12/19 00:20:42;;;;;;;;;;;3.30;99.90;;;;;;5033911;28;19911;-65
2021/12/19 00:23:08;;;;;;;;;;;3.00;99.90;;;;;;5034004;28;19939;-66
2021/12/19 00:25:34;;;;;;;;;;;3.30;99.90;;;;;;5016275;28;19909;-66
2021/12/19 00:27:59;;;;;;;;;;;2.80;99.90;;;;;;5033643;28;20354;-66
2021/12/19 00:30:25;;;;;;;;;;;2.60;99.90;;;;;;5033694;28;19905;-66
2021/12/19 00:32:50;;;;;;;;;;;2.30;99.90;;;;;;5033693;28;20371;-64
2021/12/19 00:35:16;;;;;;;;;;;3.00;99.90;;;;;;5031399;28;19984;-63
2021/12/19 00:37:42;;;;;;;;;;;2.80;99.90;;;;;;5033023;28;19912;-67
2021/12/19 00:40:08;;;;;;;;;;;2.00;99.90;;;;;;5032176;28;20059;-66
2021/12/19 00:42:34;;;;;;;;;;;2.50;99.90;;;;;;5032341;28;19913;-66
2021/12/19 00:45:05;;;;;;;;;;;1.90;99.90;;;;;;5027541;28;20355;-67
2021/12/19 00:47:30;;;;;;;;;;;3.10;99.90;;;;;;5032762;28;19905;-65
2021/12/19 00:49:56;;;;;;;;;;;3.20;99.90;;;;;;5032507;28;19959;-64
2021/12/19 00:52:22;;;;;;;;;;;1.90;99.90;;;;;;5033139;28;19917;-65
2021/12/19 00:54:47;;;;;;;;;;;2.20;99.90;;;;;;5032988;28;20295;-65
2021/12/19 00:57:13;;;;;;;;;;;2.60;99.90;;;;;;5032866;28;19915;-63
2021/12/19 00:59:39;;;;;;;;;;;;;;;;;;5014347;28;20359;-65
2021/12/19 01:02:04;;;;;;;;;;;2.60;99.90;;;;;;5032891;28;19905;-65
2021/12/19 01:04:30;;;;;;;;;;;2.40;99.90;;;;;;5032808;28;20014;-65
2021/12/19 01:07:00;;;;;;;;;;;2.10;99.90;;;;;;5033147;28;20355;-65
2021/12/19 01:09:25;;;;;;;;;;;2.80;99.90;;;;;;5032729;28;19905;-65
2021/12/19 01:11:51;;;;;;;;;;;1.90;99.90;;;;;;5032838;28;19913;-65
2021/12/19 01:14:16;;;;;;;;;;;2.90;99.90;;;;;;5032915;28;20527;-64
2021/12/19 01:16:42;;;;;;;;;;;3.20;99.90;;;;;;5032927;28;19912;-65
2021/12/19 01:19:08;;;;;;;;;;;;;;;;;;5032396;28;19980;-64
2021/12/19 01:21:33;;;;;;;;;;;1.70;99.90;;;;;;5032587;28;19905;-63
2021/12/19 01:23:59;;;;;;;;;;;1.80;99.90;;;;;;5032535;28;19909;-65
2021/12/19 01:26:24;;;;;;;;;;;3.20;99.90;;;;;;5032584;28;19954;-65
2021/12/19 01:28:50;;;;;;;;;;;2.70;99.90;;;;;;5031695;28;19909;-64
2021/12/19 01:31:16;;;;;;;;;;;4.00;99.90;;;;;;5032516;28;19905;-63
2021/12/19 01:33:41;;;;;;;;;;;2.30;99.90;;;;;;5032567;28;20018;-65
2021/12/19 01:36:07;;;;;;;;;;;3.50;99.90;;;;;;5032349;28;19916;-65
2021/12/19 01:38:33;;;;;;;;;;;3.80;99.90;;;;;;5031609;28;19912;-65
2021/12/19 01:40:58;;;;;;;;;;;3.20;99.90;;;;;;5032980;28;19988;-64
2021/12/19 01:43:25;;;;;;;;;;;2.30;99.90;;;;;;5047135;28;19913;-68
2021/12/19 01:45:52;;;;;;;;;;;3.20;99.90;;;;;;5038363;28;20336;-64
2021/12/19 01:48:19;;;;;;;;;;;2.00;99.90;;;;;;5036106;28;19905;-65
2021/12/19 01:50:44;;;;;;;;;;;2.00;99.90;;;;;;5036237;28;20034;-64
2021/12/19 01:53:11;;;;;;;;;;;3.00;99.90;;;;;;5035885;28;19905;-65
2021/12/19 01:55:37;;;;;;;;;;;1.60;99.90;;;;;;5035775;28;19905;-64
2021/12/19 01:58:03;;;;;;;;;;;2.20;99.90;;;;;;5036222;28;19947;-64
2021/12/19 02:00:31;;;;;;;;;;;1.90;99.90;;;;;;5047590;28;19905;-64
2021/12/19 02:02:57;;;;;;;;;;;2.40;99.90;;;;;;5056298;28;19909;-65
2021/12/19 02:05:23;;;;;;;;;;;2.00;99.90;;;;;;5055387;28;19893;-65
2021/12/19 02:07:49;;;;;;;;;;;2.20;99.90;;;;;;5055922;28;19905;-62
2021/12/19 02:10:19;;;;;;;;;;;1.80;99.90;;;;;;5065841;22;19968;-62
2021/12/19 02:12:45;;;;;;;;;;;2.50;99.90;;;;;;5040691;28;19921;-65
2021/12/19 02:15:16;;;;;;;;;;;2.30;99.90;;;;;;5051650;28;19952;-64
2021/12/19 02:17:41;;;;;;;;;;;2.60;99.90;;;;;;5051572;28;19913;-64
2021/12/19 02:20:09;;;;;;;;;;;1.70;99.90;;;;;;5051004;28;19912;-63
2021/12/19 02:22:34;;;;;;;;;;;2.40;99.90;;;;;;5051562;28;19908;-63
2021/12/19 02:25:00;;;;;;;;;;;1.10;99.90;;;;;;5051582;28;20391;-64
2021/12/19 02:27:28;;;;;;;;;;;1.30;99.90;;;;;;5051425;28;19911;-64
2021/12/19 02:29:54;;;;;;;;;;;2.90;99.90;;;;;;5050682;28;20012;-64
2021/12/19 02:32:21;;;;;;;;;;;2.20;99.90;;;;;;5051587;28;19958;-64
2021/12/19 02:34:49;;;;;;;;;;;2.90;99.90;;;;;;5051427;28;20000;-64
2021/12/19 02:37:48;;;;;;;;;;;2.60;99.90;;;;;;5051458;28;20355;-64
2021/12/19 02:48:13;;;;;;;;;;;2.30;99.90;;;;;;5031041;28;19925;-63
2021/12/19 02:50:49;;;;;;;;;;;2.10;99.90;;;;;;5031583;28;19905;-64
2021/12/19 02:53:17;;;;;;;;;;;1.00;99.90;;;;;;5031427;28;20030;-64
2021/12/19 02:55:43;;;;;;;;;;;1.40;99.90;;;;;;5031002;28;20337;-64
2021/12/19 02:58:10;;;;;;;;;;;2.30;99.90;;;;;;5030879;28;19917;-65
2021/12/19 03:00:35;;;;;;;;;;;2.00;99.90;;;;;;5031523;28;19937;-64
2021/12/19 03:03:01;;;;;;;;;;;1.70;99.90;;;;;;5030562;28;19913;-63
2021/12/19 03:05:26;;;;;;;;;;;1.90;99.90;;;;;;5031899;28;20255;-64
2021/12/19 03:07:54;;;;;;;;;;;2.40;99.90;;;;;;5034395;28;20366;-60
2021/12/19 03:18:15;;;;;;;;;;;2.00;99.90;;;;;;5034208;28;19912;-64
2021/12/19 03:20:42;;;;;;;;;;;1.20;99.90;;;;;;5034930;28;19909;-65
2021/12/19 03:23:08;;;;;;;;;;;1.40;99.90;;;;;;5034522;28;19916;-64
2021/12/19 03:25:34;;;;;;;;;;;1.30;99.90;;;;;;5034454;28;19909;-63
2021/12/19 03:28:01;;;;;;;;;;;1.60;99.90;;;;;;5034147;28;19939;-64
2021/12/19 03:30:27;;;;;;;;;;;2.00;99.90;;;;;;5034331;28;20310;-63
2021/12/19 03:32:52;;;;;;;;;;;1.40;99.90;;;;;;5034857;28;19991;-64
2021/12/19 03:35:18;;;;;;;;;;;1.90;99.90;;;;;;5034782;28;20000;-63
2021/12/19 03:37:44;;;;;;;;;;;1.50;99.90;;;;;;5037359;28;19905;-64
2021/12/19 03:40:12;;;;;;;;;;;1.50;99.90;;;;;;5035006;28;20363;-63
2021/12/19 03:42:37;;;;;;;;;;;1.00;99.90;;;;;;5039957;28;19963;-63
2021/12/19 03:45:04;;;;;;;;;;;0.30;99.90;;;;;;5038436;28;19909;-63
2021/12/19 03:47:29;;;;;;;;;;;2.40;99.90;;;;;;5035508;28;19905;-63
2021/12/19 03:49:55;;;;;;;;;;;1.40;99.90;;;;;;5034604;28;19905;-64
2021/12/19 03:52:20;;;;;;;;;;;1.20;99.90;;;;;;5034325;28;20461;-64
2021/12/19 03:54:46;;;;;;;;;;;2.00;99.90;;;;;;5034153;28;19959;-64
2021/12/19 03:57:11;;;;;;;;;;;1.00;99.90;;;;;;5034074;28;19972;-63
2021/12/19 03:59:37;;;;;;;;;;;1.50;99.90;;;;;;5033177;28;20277;-63
2021/12/19 04:02:03;;;;;;;;;;;1.50;99.90;;;;;;5033978;28;19950;-65
2021/12/19 04:04:34;;;;;;;;;;;1.60;99.90;;;;;;5033923;28;19909;-64
2021/12/19 04:07:00;;;;;;;;;;;2.10;99.90;;;;;;5032395;28;19912;-63
2021/12/19 04:09:25;;;;;;;;;;;1.20;99.90;;;;;;5033292;28;19905;-64
2021/12/19 04:11:54;;;;;;;;;;;1.00;99.90;;;;;;5033444;28;20099;-64
2021/12/19 04:14:20;;;;;;;;;;;0.50;99.90;;;;;;5033540;28;19928;-63
2021/12/19 04:16:46;;;;;;;;;;;;;;;;;;5033165;28;19905;-63
2021/12/19 04:19:11;;;;;;;;;;;0.60;99.90;;;;;;5033503;28;19955;-65
2021/12/19 04:21:37;;;;;;;;;;;1.70;99.90;;;;;;5033368;28;19947;-64
2021/12/19 04:24:03;;;;;;;;;;;1.60;99.90;;;;;;5033522;28;20355;-64
2021/12/19 04:26:28;;;;;;;;;;;0.40;99.90;;;;;;5033270;28;19928;-63
2021/12/19 04:28:54;;;;;;;;;;;2.50;99.90;;;;;;5032797;28;20302;-64
2021/12/19 04:31:19;;;;;;;;;;;1.90;99.90;;;;;;5033470;28;19905;-64
2021/12/19 04:33:45;;;;;;;;;;;1.50;99.90;;;;;;5033312;28;19905;-64
2021/12/19 04:36:16;;;;;;;;;;;2.30;99.90;;;;;;5033377;28;20390;-63
2021/12/19 04:41:49;;;;;;;;;;;1.90;99.90;;;;;;5032725;28;20059;-63
2021/12/19 04:57:56;;;;;;;;;;;2.20;99.90;;;;;;4995157;28;19909;-64
2021/12/19 05:00:33;;;;;;;;;;;1.00;99.90;;;;;;5032459;28;19970;-64
2021/12/19 05:03:06;;;;;;;;;;;1.30;99.90;;;;;;5025127;28;19963;-64
2021/12/19 05:16:10;;;;;;;;;;;1.00;99.90;;;;;;5013228;28;19912;-63
2021/12/19 05:18:38;;;;;;;;;;;0.60;99.90;;;;;;5026168;28;20279;-64
2021/12/19 05:21:12;;;;;;;;;;;2.10;99.90;;;;;;5032233;28;20394;-63
2021/12/19 05:26:03;;;;;;;;;;;1.40;99.90;;;;;;5031832;28;19909;-64
2021/12/19 05:28:29;;;;;;;;;;;2.30;99.90;;;;;;5031035;28;19909;-62
2021/12/19 05:30:55;;;;;;;;;;;2.00;99.90;;;;;;5020534;28;19909;-69
2021/12/19 05:33:21;;;;;;;;;;;;;;;;;;5028768;28;19905;-73
2021/12/19 05:46:24;;;;;;;;;;;2.60;99.90;;;;;;5032920;28;20430;-74
2021/12/19 05:48:50;;;;;;;;;;;1.90;99.90;;;;;;5035580;28;19905;-76
2021/12/19 05:51:15;;;;;;;;;;;2.00;99.90;;;;;;5044471;28;19909;-74
2021/12/19 05:53:41;;;;;;;;;;;1.30;99.90;;;;;;5046027;28;20003;-74
2021/12/19 05:56:06;;;;;;;;;;;0.80;99.90;;;;;;5049982;28;19909;-72
2021/12/19 05:58:32;;;;;;;;;;;2.00;99.90;;;;;;5048777;28;19919;-74
2021/12/19 06:00:58;;;;;;;;;;;2.20;99.90;;;;;;5049364;28;19905;-74
2021/12/19 06:03:23;;;;;;;;;;;1.20;99.90;;;;;;5040114;28;19916;-74
2021/12/19 06:05:49;;;;;;;;;;;1.60;99.90;;;;;;5037706;28;19912;-75
2021/12/19 06:08:14;;;;;;;;;;;1.80;99.90;;;;;;5031704;28;20396;-74
2021/12/19 06:10:40;;;;;;;;;;;1.20;99.90;;;;;;5032033;28;20380;-74
2021/12/19 06:13:05;;;;;;;;;;;0.80;99.90;;;;;;5013745;28;19916;-73
2021/12/19 06:15:31;;;;;;;;;;;1.40;99.90;;;;;;5014708;28;19909;-74
2021/12/19 06:17:57;;;;;;;;;;;1.30;99.90;;;;;;5031434;28;19905;-75
2021/12/19 06:20:25;;;;;;;;;;;1.70;99.90;;;;;;5031625;28;19967;-73
2021/12/19 06:22:51;;;;;;;;;;;1.40;99.90;;;;;;5045281;28;19956;-75
2021/12/19 06:25:16;;;;;;;;;;;1.40;99.90;;;;;;5032220;28;20409;-73
2021/12/19 06:27:42;;;;;;;;;;;1.00;99.90;;;;;;5030419;28;20029;-75
2021/12/19 06:30:08;;;;;;;;;;;1.00;99.90;;;;;;5031319;28;19905;-72
2021/12/19 06:32:34;;;;;;;;;;;1.20;99.90;;;;;;5031339;28;19909;-72
2021/12/19 06:35:06;;;;;;;;;;;1.60;99.90;;;;;;5032689;28;20339;-74
2021/12/19 06:37:35;;;;;;;;;;;1.00;99.90;;;;;;5031473;28;20018;-73
2021/12/19 06:40:02;;;;;;;;;;;1.90;99.90;;;;;;5031196;28;19916;-73
2021/12/19 06:42:28;;;;;;;;;;;2.10;99.90;;;;;;5034582;28;19905;-72
2021/12/19 06:44:53;;;;;;;;;;;0.90;99.90;;;;;;5035360;28;19916;-74
2021/12/19 06:47:19;;;;;;;;;;;1.90;99.90;;;;;;5035403;28;19936;-74
2021/12/19 06:49:44;;;;;;;;;;;0.80;99.90;;;;;;5034802;28;19912;-74
2021/12/19 06:52:10;;;;;;;;;;;0.80;99.90;;;;;;5034803;28;19966;-70
2021/12/19 06:54:35;;;;;;;;;;;1.40;99.90;;;;;;5034911;28;19905;-68
2021/12/19 06:57:01;;;;;;;;;;;1.40;99.90;;;;;;5034020;28;20459;-69
2021/12/19 06:59:26;;;;;;;;;;;1.60;99.90;;;;;;5034780;28;20367;-68
2021/12/19 07:01:52;;;;;;;;;;;1.90;99.90;;;;;;5035002;28;19905;-68
2021/12/19 07:04:17;;;;;;;;;;;1.60;99.90;;;;;;5035269;28;19909;-69
2021/12/19 07:06:43;;;;;;;;;;;1.90;99.90;;;;;;5035870;28;20252;-70
2021/12/19 07:09:09;;;;;;;;;;;1.50;99.90;;;;;;5034645;28;19955;-69
2021/12/19 07:11:34;;;;;;;;;;;0.70;99.90;;;;;;5034260;28;19913;-69
2021/12/19 07:14:00;;;;;;;;;;;1.00;99.90;;;;;;5033826;28;20252;-71
2021/12/19 07:16:25;;;;;;;;;;;1.20;99.90;;;;;;5034799;28;19988;-69
2021/12/19 07:18:51;;;;;;;;;;;0.50;99.90;;;;;;5034063;28;20327;-70
2021/12/19 07:21:16;;;;;;;;;;;0.40;99.90;;;;;;5034587;28;20468;-69
2021/12/19 07:23:42;;;;;;;;;;;0.90;99.90;;;;;;5034263;28;20362;-68
2021/12/19 07:26:08;;;;;;;;;;;1.30;99.90;;;;;;5034775;28;19905;-69
2021/12/19 07:28:34;;;;;;;;;;;1.10;99.90;;;;;;5033657;28;20532;-68
2021/12/19 07:30:59;;;;;;;;;;;1.10;99.90;;;;;;5034204;28;19909;-68
2021/12/19 07:33:25;;;;;;;;;;;1.30;99.90;;;;;;5034434;28;19912;-69
2021/12/19 07:35:52;;;;;;;;;;;0.90;99.90;;;;;;5034562;28;19909;-69
2021/12/19 07:38:32;;;;;;;;;;;1.20;99.90;;;;;;5040100;28;19940;-69
2021/12/19 07:40:59;;;;;;;;;;;2.80;99.90;;;;;;5046643;28;19905;-68
2021/12/19 07:43:25;;;;;;;;;;;1.30;99.90;;;;;;5034275;28;19963;-69
2021/12/19 07:45:51;;;;;;;;;;;1.60;99.90;;;;;;5033772;28;19912;-68
2021/12/19 07:48:16;;;;;;;;;;;0.90;99.90;;;;;;5034568;28;19991;-69
2021/12/19 07:50:42;;;;;;;;;;;1.10;99.90;;;;;;5033560;28;20349;-68
2021/12/19 07:53:08;;;;;;;;;;;1.00;99.90;;;;;;5032679;28;19916;-69
2021/12/19 07:55:34;;;;;;;;;;;1.00;99.90;;;;;;5034081;28;19959;-69
2021/12/19 07:57:59;;;;;;;;;;;1.30;99.90;;;;;;5033362;28;19905;-68
2021/12/19 08:00:25;;;;;;;;;;;1.10;99.90;;;;;;5028742;28;19909;-68
2021/12/19 08:02:51;;;;;;;;;;;0.50;99.90;;;;;;5013773;28;19963;-69
2021/12/19 08:05:17;;;;;;;;;;;2.10;99.90;;;;;;5014114;28;20325;-68
2021/12/19 08:07:47;;;;;;;;;;;2.40;99.90;;;;;;5014141;28;19909;-66
2021/12/19 08:12:39;;;;;;;;;;;1.50;99.90;;;;;;5033116;28;20550;-69
2021/12/19 08:15:05;;;;;;;;;;;0.80;99.90;;;;;;5034145;28;20027;-69
2021/12/19 08:17:31;;;;;;;;;;;1.40;99.90;;;;;;5033682;28;19911;-68
2021/12/19 08:19:57;;;;;;;;;;;2.70;99.90;;;;;;5032864;28;19959;-69
2021/12/19 08:22:22;;;;;;;;;;;0.80;99.90;;;;;;5033682;28;19913;-68
2021/12/19 08:24:50;;;;;;;;;;;1.00;99.90;;;;;;5033688;28;19909;-68
2021/12/19 08:27:15;;;;;;;;;;;1.10;99.90;;;;;;5033644;28;19991;-69
2021/12/19 08:29:41;;;;;;;;;;;0.70;99.90;;;;;;5033742;28;20004;-68
2021/12/19 08:32:06;;;;;;;;;;;1.10;99.90;;;;;;5033549;28;19909;-68
2021/12/19 08:34:32;;;;;;;;;;;1.00;99.90;;;;;;5033304;28;19905;-69
2021/12/19 08:36:58;;;;;;;;;;;1.20;99.90;;;;;;5033368;28;20363;-68
2021/12/19 08:39:25;;;;;;;;;;;0.80;99.90;;;;;;5033149;28;20363;-69
2021/12/19 08:41:50;;;;;;;;;;;1.20;99.90;;;;;;5033172;28;19912;-69
2021/12/19 08:44:16;;;;;;;;;;;1.20;99.90;;;;;;5042502;28;19909;-68
2021/12/19 08:46:42;;;;;;;;;;;0.80;99.90;;;;;;5042719;28;19917;-69
2021/12/19 08:49:10;;;;;;;;;;;1.00;99.90;;;;;;5039016;28;19909;-69
2021/12/19 08:51:37;;;;;;;;;;;1.20;99.90;;;;;;5035561;28;20344;-66
2021/12/19 08:54:03;;;;;;;;;;;0.70;99.90;;;;;;5032763;28;19905;-67
2021/12/19 08:56:29;;;;;;;;;;;0.60;99.90;;;;;;5033191;28;19912;-69
2021/12/19 08:58:54;;;;;;;;;;;1.10;99.90;;;;;;5032105;28;20346;-69
2021/12/19 09:01:20;;;;;;;;;;;1.30;99.90;;;;;;5032767;28;19909;-69
2021/12/19 09:03:45;;;;;;;;;;;1.20;99.90;;;;;;5032463;28;19975;-68
2021/12/19 09:06:11;;;;;;;;;;;0.70;99.90;;;;;;5032475;28;19912;-68
2021/12/19 09:08:37;;;;;;;;;;;0.80;99.90;;;;;;5032024;28;19905;-67
2021/12/19 09:11:02;;;;;;;;;;;1.20;99.90;;;;;;5032524;28;19920;-74
2021/12/19 09:13:28;;;;;;;;;;;1.40;99.90;;;;;;5032657;28;20413;-74
2021/12/19 09:15:53;;;;;;;;;;;1.30;99.90;;;;;;5015044;28;19998;-74
2021/12/19 09:18:19;;;;;;;;;;;2.60;99.90;;;;;;5031718;28;20062;-75
2021/12/19 09:20:45;;;;;;;;;;;0.60;99.90;;;;;;5032481;28;19909;-67
2021/12/19 09:23:11;;;;;;;;;;;2.00;99.90;;;;;;5032692;28;19971;-70
2021/12/19 09:25:37;;;;;;;;;;;1.80;99.90;;;;;;5032249;28;19911;-69
2021/12/19 09:28:03;;;;;;;;;;;2.50;99.90;;;;;;5031673;28;19999;-68
2021/12/19 09:30:29;;;;;;;;;;;1.10;99.90;;;;;;5032322;28;19955;-67
2021/12/19 09:32:55;;;;;;;;;;;0.50;99.90;;;;;;5032561;28;19905;-67
2021/12/19 09:35:21;;;;;;;;;;;2.10;99.90;;;;;;5032554;28;19905;-68
2021/12/19 09:37:46;;;;;;;;;;;0.60;99.90;;;;;;5032876;28;19993;-65
2021/12/19 09:40:17;;;;;;;;;;;2.20;99.90;;;;;;5032246;28;19932;-67
2021/12/19 09:42:48;;;;;;;;;;;1.10;99.90;;;;;;5032316;28;19905;-67
2021/12/19 09:45:13;;;;;;;;;;;1.80;99.90;;;;;;5032653;28;19905;-68
2021/12/19 09:47:39;;;;;;;;;;;0.90;99.90;;;;;;5032015;28;19942;-68
2021/12/19 09:50:07;;;;;;;;;;;1.20;99.90;;;;;;5025271;28;19910;-74
2021/12/19 09:52:33;;;;;;;;;;;1.60;99.90;;;;;;5020895;28;20371;-74
2021/12/19 09:54:59;;;;;;;;;;;1.90;99.90;;;;;;5021716;28;19987;-73
2021/12/19 09:57:24;;;;;;;;;;;-1.00;99.90;;;;;;5021013;28;19966;-64
2021/12/19 09:59:50;;;;;;;;;;;1.30;99.90;;;;;;5031080;28;19905;-64
2021/12/19 10:02:16;;;;;;;;;;;1.40;99.90;;;;;;5030914;28;19915;-74
2021/12/19 10:04:43;;;;;;;;;;;0.60;99.90;;;;;;5031725;28;19912;-74
2021/12/19 10:07:11;;;;;;;;;;;2.30;99.90;;;;;;5030748;28;20004;-73
2021/12/19 10:09:38;;;;;;;;;;;1.60;99.90;;;;;;5030679;28;19971;-72
2021/12/19 10:12:36;;;;;;;;;;;2.30;99.90;;;;;;5031252;28;19919;-74
2021/12/19 10:15:03;;;;;;;;;;;1.70;99.90;;;;;;5032116;28;19909;-73
2021/12/19 10:17:31;;;;;;;;;;;1.50;99.90;;;;;;5035725;28;19921;-72
2021/12/19 10:20:02;;;;;;;;;;;1.50;99.90;;;;;;5034790;28;19909;-70
2021/12/19 10:22:30;;;;;;;;;;;1.40;99.90;;;;;;5035848;28;20406;-70
2021/12/19 10:25:07;;;;;;;;;;;1.80;99.90;;;;;;5035596;28;19991;-71
2021/12/19 10:27:40;;;;;;;;;;;1.60;99.90;;;;;;5035337;28;19905;-72
2021/12/19 10:30:10;;;;;;;;;;;1.90;99.90;;;;;;5032027;28;19935;-72
2021/12/19 10:32:36;;;;;;;;;;;1.40;99.90;;;;;;5035553;28;19951;-72
2021/12/19 10:35:15;;;;;;;;;;;1.60;99.90;;;;;;5034882;28;19944;-74
2021/12/19 10:37:41;;;;;;;;;;;1.70;99.90;;;;;;5035499;28;19905;-75
2021/12/19 10:40:07;;;;;;;;;;;1.50;99.90;;;;;;5028621;28;20488;-75
2021/12/19 10:42:42;;;;;;;;;;;1.70;99.90;;;;;;5022758;28;19905;-75
2021/12/19 10:48:07;;;;;;;;;;;2.00;99.90;;;;;;5026771;28;19917;-74
2021/12/19 10:50:52;;;;;;;;;;;1.50;99.90;;;;;;5034761;28;19904;-74
2021/12/19 10:53:19;;;;;;;;;;;1.60;99.90;;;;;;5030332;28;20595;-75
2021/12/19 10:55:46;;;;;;;;;;;1.90;99.90;;;;;;5038211;28;19909;-75
2021/12/19 10:58:24;;;;;;;;;;;2.50;99.90;;;;;;5054780;28;19913;-74
2021/12/19 11:00:54;;;;;;;;;;;1.20;99.90;;;;;;5040885;28;19905;-75
2021/12/19 11:03:32;;;;;;;;;;;1.60;99.90;;;;;;5034487;28;20413;-75
2021/12/19 11:05:58;;;;;;;;;;;1.10;99.90;;;;;;5027027;28;19999;-75
2021/12/19 11:08:28;;;;;;;;;;;1.50;99.90;;;;;;5033519;28;20394;-74
2021/12/19 11:10:54;;;;;;;;;;;1.50;99.90;;;;;;5032250;28;19958;-72
2021/12/19 11:13:21;;;;;;;;;;;1.50;99.90;;;;;;5034480;28;19995;-67
2021/12/19 11:15:49;;;;;;;;;;;1.60;99.90;;;;;;5034970;28;19905;-68
2021/12/19 11:18:14;;;;;;;;;;;2.60;99.90;;;;;;5033878;28;19905;-70
2021/12/19 11:20:40;;;;;;;;;;;1.40;99.90;;;;;;5034915;28;19905;-69
2021/12/19 11:23:06;;;;;;;;;;;2.20;99.90;;;;;;5034904;28;19966;-70
2021/12/19 11:25:31;;;;;;;;;;;2.70;99.90;;;;;;5033398;28;19936;-70
2021/12/19 11:27:59;;;;;;;;;;;1.40;99.90;;;;;;5034124;28;19905;-70
2021/12/19 11:30:25;;;;;;;;;;;0.70;99.90;;;;;;5034839;28;19980;-71
2021/12/19 11:33:11;;;;;;;;;;;1.60;99.90;;;;;;5035063;28;19909;-70
2021/12/19 11:35:38;;;;;;;;;;;1.30;99.90;;;;;;5035200;28;19940;-68
2021/12/19 11:38:08;;;;;;;;;;;2.80;99.90;;;;;;5033901;28;19987;-70
2021/12/19 11:40:36;;;;;;;;;;;1.60;99.90;;;;;;5034567;28;19912;-70
2021/12/19 11:43:12;;;;;;;;;;;1.40;99.90;;;;;;5034232;28;20003;-70
2021/12/19 11:45:53;;;;;;;;;;;1.90;99.90;;;;;;5034320;28;20314;-70
2021/12/19 11:51:08;;;;;;;;;;;1.50;99.90;;;;;;5033631;28;20280;-70
2021/12/19 11:53:39;;;;;;;;;;;1.80;99.90;;;;;;5015066;28;20282;-74
2021/12/19 11:56:11;;;;;;;;;;;1.30;99.90;;;;;;5020280;28;20368;-74
2021/12/19 11:58:38;;;;;;;;;;;1.70;99.90;;;;;;5013341;28;20393;-74
2021/12/19 12:01:06;;;;;;;;;;;1.00;99.90;;;;;;5014234;28;19937;-71
2021/12/19 12:03:52;;;;;;;;;;;2.60;99.90;;;;;;5013853;28;20439;-70
2021/12/19 12:06:17;;;;;;;;;;;1.90;99.90;;;;;;4996104;28;20376;-69
2021/12/19 12:09:04;;;;;;;;;;;2.40;99.90;;;;;;5013820;28;19984;-68
2021/12/19 12:11:31;;;;;;;;;;;2.70;99.90;;;;;;5023623;28;19947;-70
2021/12/19 12:14:15;;;;;;;;;;;2.90;99.90;;;;;;5033645;28;19905;-70
2021/12/19 12:16:50;;;;;;;;;;;2.10;99.90;;;;;;5032549;28;19905;-69
2021/12/19 12:19:15;;;;;;;;;;;2.40;99.90;;;;;;5033002;28;20507;-71
2021/12/19 12:21:45;;;;;;;;;;;2.00;99.90;;;;;;5033575;28;19951;-70
2021/12/19 12:24:11;;;;;;;;;;;1.90;99.90;;;;;;5033495;28;19909;-69
2021/12/19 12:26:50;;;;;;;;;;;2.00;99.90;;;;;;5033429;28;19928;-70
2021/12/19 12:29:16;;;;;;;;;;;2.50;99.90;;;;;;5031973;28;19980;-71
2021/12/19 12:31:43;;;;;;;;;;;2.20;99.90;;;;;;5025382;28;20334;-70
2021/12/19 12:34:09;;;;;;;;;;;2.50;99.90;;;;;;5033005;28;19905;-70
2021/12/19 12:36:35;;;;;;;;;;;1.80;99.90;;;;;;5032618;28;19912;-69
2021/12/19 12:39:06;;;;;;;;;;;1.60;99.90;;;;;;5032526;28;19905;-68
2021/12/19 12:44:07;;;;;;;;;;;1.80;99.90;;;;;;5026104;28;19917;-68
2021/12/19 12:46:33;;;;;;;;;;;1.90;99.90;;;;;;5029153;28;19909;-70
2021/12/19 12:49:00;;;;;;;;;;;2.10;99.90;;;;;;5031974;28;19912;-68
2021/12/19 12:51:32;;;;;;;;;;;2.40;99.90;;;;;;5033069;28;19913;-69
2021/12/19 12:54:02;;;;;;;;;;;1.90;99.90;;;;;;5033228;28;19905;-68
2021/12/19 12:56:32;;;;;;;;;;;1.90;99.90;;;;;;5033130;28;19905;-68
2021/12/19 12:58:58;;;;;;;;;;;1.80;99.90;;;;;;5032424;28;19905;-68
2021/12/19 13:01:24;;;;;;;;;;;1.90;99.90;;;;;;5028673;28;19909;-69
2021/12/19 13:03:53;;;;;;;;;;;2.20;99.90;;;;;;5020722;28;19909;-70
2021/12/19 13:06:34;;;;;;;;;;;2.20;99.90;;;;;;5032132;28;20407;-69
2021/12/19 13:09:10;;;;;;;;;;;2.50;99.90;;;;;;5024270;28;19940;-70
2021/12/19 13:11:36;;;;;;;;;;;0.50;99.90;;;;;;5031569;28;19913;-68
2021/12/19 13:14:21;;;;;;;;;;;1.90;99.90;;;;;;5032737;28;19909;-69
2021/12/19 13:19:40;;;;;;;;;;;1.90;99.90;;;;;;5578985;22;19925;-67
2021/12/19 13:22:10;;;;;;;;;;;1.90;99.90;;;;;;5041890;28;19916;-66
2021/12/19 13:24:38;;;;;;;;;;;1.50;99.90;;;;;;5053051;22;20391;-68
2021/12/19 13:27:07;;;;;;;;;;;1.80;99.90;;;;;;5018399;28;19945;-67
2021/12/19 13:29:32;;;;;;;;;;;1.90;99.90;;;;;;5012258;28;19912;-68
2021/12/19 13:32:16;;;;;;;;;;;2.00;99.90;;;;;;5011403;28;19913;-70
2021/12/19 13:34:42;;;;;;;;;;;1.60;99.90;;;;;;5025991;28;19916;-69
2021/12/19 13:37:08;;;;;;;;;;;1.60;99.90;;;;;;5029524;28;20355;-76
2021/12/19 13:39:34;;;;;;;;;;;2.00;99.90;;;;;;5030609;22;19984;-76
2021/12/19 13:42:07;;;;;;;;;;;2.60;99.90;;;;;;5011298;28;19909;-74
2021/12/19 13:44:32;;;;;;;;;;;2.90;99.90;;;;;;4997041;28;19948;-75
2021/12/19 13:46:58;;;;;;;;;;;1.90;99.90;;;;;;4992148;28;19910;-77
2021/12/19 13:49:24;;;;;;;;;;;3.80;99.90;;;;;;5001884;28;19910;-75
2021/12/19 13:51:49;;;;;;;;;;;;;;;;;;5001916;28;19949;-74
2021/12/19 13:54:15;;;;;;;;;;;1.60;99.90;;;;;;4991647;28;19968;-76
2021/12/19 13:56:40;;;;;;;;;;;3.30;99.90;;;;;;4992872;28;19914;-75
2021/12/19 13:59:17;;;;;;;;;;;3.40;99.90;;;;;;5023828;28;19916;-79
2021/12/19 14:01:42;;;;;;;;;;;3.60;99.90;;;;;;5031709;28;19909;-78
2021/12/19 14:04:14;;;;;;;;;;;2.90;99.90;;;;;;5032320;28;19920;-75
2021/12/19 14:06:40;;;;;;;;;;;2.50;99.90;;;;;;5030970;28;20386;-75
2021/12/19 14:09:07;;;;;;;;;;;2.90;99.90;;;;;;5031569;28;19919;-74
2021/12/19 14:11:34;;;;;;;;;;;2.90;99.90;;;;;;5032117;28;19912;-75
2021/12/19 14:14:09;;;;;;;;;;;1.80;99.90;;;;;;5032212;28;19912;-77
2021/12/19 14:16:36;;;;;;;;;;;2.30;99.90;;;;;;5033162;28;20385;-77
2021/12/19 14:19:14;;;;;;;;;;;2.30;99.90;;;;;;5014261;28;19911;-78
2021/12/19 14:21:40;;;;;;;;;;;2.20;99.90;;;;;;5032505;28;20371;-77
2021/12/19 14:24:14;;;;;;;;;;;2.00;99.90;;;;;;5032804;28;20007;-76
2021/12/19 14:26:41;;;;;;;;;;;2.00;99.90;;;;;;5030406;28;19941;-78
2021/12/19 14:29:17;;;;;;;;;;;1.90;99.90;;;;;;5012102;28;20386;-78
2021/12/19 14:31:54;;;;;;;;;;;3.00;99.90;;;;;;5012385;28;19909;-77
2021/12/19 14:34:20;;;;;;;;;;;2.30;99.90;;;;;;5012297;28;20295;-78
2021/12/19 14:36:46;;;;;;;;;;;2.30;99.90;;;;;;5029592;28;19912;-77
2021/12/19 14:39:15;;;;;;;;;;;2.10;99.90;;;;;;5031233;28;19925;-77
2021/12/19 14:41:41;;;;;;;;;;;2.20;99.90;;;;;;5032268;28;19976;-77
2021/12/19 14:44:16;;;;;;;;;;;2.00;99.90;;;;;;5032148;28;19955;-77
2021/12/19 14:46:42;;;;;;;;;;;2.40;99.90;;;;;;5032029;28;19928;-78
2021/12/19 14:49:10;;;;;;;;;;;2.10;99.90;;;;;;5026038;28;19913;-78
2021/12/19 14:51:36;;;;;;;;;;;2.40;99.90;;;;;;5014065;28;20586;-79
2021/12/19 14:54:02;;;;;;;;;;;2.10;99.90;;;;;;5014878;28;19909;-79
2021/12/19 14:56:29;;;;;;;;;;;2.10;99.90;;;;;;5015372;28;19913;-80
2021/12/19 14:58:56;;;;;;;;;;;2.60;99.90;;;;;;5014046;28;19909;-79
2021/12/19 15:01:23;;;;;;;;;;;2.50;99.90;;;;;;5015799;28;20012;-76
2021/12/19 15:03:55;;;;;;;;;;;2.30;99.90;;;;;;5015876;28;19913;-76
2021/12/19 15:06:23;;;;;;;;;;;2.10;99.90;;;;;;5029285;28;19911;-76
2021/12/19 15:08:49;;;;;;;;;;;2.10;99.90;;;;;;5033962;28;19916;-76
2021/12/19 15:11:15;;;;;;;;;;;1.90;99.90;;;;;;5034785;28;19905;-76
2021/12/19 15:13:41;;;;;;;;;;;2.20;99.90;;;;;;5034421;28;19905;-76
2021/12/19 15:16:06;;;;;;;;;;;2.10;99.90;;;;;;5033202;28;19936;-78
2021/12/19 15:18:35;;;;;;;;;;;2.10;99.90;;;;;;5034333;28;19962;-78
2021/12/19 15:21:02;;;;;;;;;;;1.80;99.90;;;;;;5034095;28;19967;-78
2021/12/19 15:23:27;;;;;;;;;;;2.30;99.90;;;;;;5034327;28;19909;-78
2021/12/19 15:25:53;;;;;;;;;;;2.70;99.90;;;;;;5034013;28;20425;-78
2021/12/19 15:28:21;;;;;;;;;;;2.20;99.90;;;;;;5017664;28;19937;-78
2021/12/19 15:30:48;;;;;;;;;;;2.10;99.90;;;;;;5014676;28;19909;-78
2021/12/19 15:33:15;;;;;;;;;;;2.40;99.90;;;;;;5015529;28;19913;-78
2021/12/19 15:35:41;;;;;;;;;;;2.40;99.90;;;;;;5015285;28;19912;-79
2021/12/19 15:38:06;;;;;;;;;;;2.00;99.90;;;;;;5014852;28;19913;-78
2021/12/19 15:40:32;;;;;;;;;;;2.00;99.90;;;;;;5014903;28;19963;-78
2021/12/19 15:42:58;;;;;;;;;;;2.10;99.90;;;;;;5014820;28;19909;-78
2021/12/19 15:45:23;;;;;;;;;;;1.90;99.90;;;;;;5023278;28;19912;-78
2021/12/19 15:47:49;;;;;;;;;;;2.20;99.90;;;;;;5034719;28;19905;-77